Time;durP1;ratioP1;P1;durP2;ratioP2;P2;SDS_P1;SDS_P2;PMS_P1;PMS_P2;Temp;Humidity;BMP_temperature;BMP_pressure;BME280_temperature;BME280_humidity;BME280_pressure;Samples;Min_cycle;Max_cycle;Signal;HPM_P1;HPM_P2
2019/05/19 00:00:28;;;;;;;6.900001;6.1;;;;;;;8.25;64.60742;93888.2;;;;
2019/05/19 00:01:30;;;;;;;6.900001;6.1;;;;;;;8.25;64.60742;93888.2;;;;
2019/05/19 00:02:31;;;;;;;6.900001;6.1;;;;;;;8.25;64.60742;93888.2;;;;
2019/05/19 00:03:32;;;;;;;6.900001;6.1;;;;;;;8.25;64.60742;93888.2;;;;
2019/05/19 00:04:33;;;;;;;6.900001;6.1;;;;;;;8.25;64.60742;93888.2;;;;
2019/05/19 00:05:34;;;;;;;6.900001;6.1;;;;;;;8.25;64.60742;93888.2;;;;
2019/05/19 00:06:36;;;;;;;6.900001;6.1;;;;;;;8.25;64.60742;93888.2;;;;
2019/05/19 00:07:37;;;;;;;6.900001;6.1;;;;;;;8.25;64.60742;93888.2;;;;
2019/05/19 00:08:38;;;;;;;6.900001;6.1;;;;;;;8.25;64.60742;93888.2;;;;
2019/05/19 00:09:39;;;;;;;6.4;5.8;;;;;;;8.1;64.94824;93892.05;;;;
2019/05/19 00:10:40;;;;;;;6.4;5.8;;;;;;;8.1;64.94824;93892.05;;;;
2019/05/19 00:11:41;;;;;;;6.4;5.8;;;;;;;8.1;64.94824;93892.05;;;;
2019/05/19 00:12:42;;;;;;;6.4;5.8;;;;;;;8.1;64.94824;93892.05;;;;
2019/05/19 00:13:43;;;;;;;6.4;5.8;;;;;;;8.1;64.94824;93892.05;;;;
2019/05/19 00:14:44;;;;;;;6.4;5.8;;;;;;;8.1;64.94824;93892.05;;;;
2019/05/19 00:15:45;;;;;;;6.4;5.8;;;;;;;8.1;64.94824;93892.05;;;;
2019/05/19 00:16:46;;;;;;;6.4;5.8;;;;;;;8.1;64.94824;93892.05;;;;
2019/05/19 00:17:48;;;;;;;6.4;5.8;;;;;;;8.1;64.94824;93892.05;;;;
2019/05/19 00:18:49;;;;;;;6.4;5.8;;;;;;;8.1;64.94824;93892.05;;;;
2019/05/19 00:19:50;;;;;;;6.9;5.95;;;;;;;8.03;65.28906;93899.92;;;;
2019/05/19 00:20:51;;;;;;;6.9;5.95;;;;;;;8.03;65.28906;93899.92;;;;
2019/05/19 00:21:52;;;;;;;6.9;5.95;;;;;;;8.03;65.28906;93899.92;;;;
2019/05/19 00:22:53;;;;;;;6.9;5.95;;;;;;;8.03;65.28906;93899.92;;;;
2019/05/19 00:23:54;;;;;;;6.9;5.95;;;;;;;8.03;65.28906;93899.92;;;;
2019/05/19 00:24:55;;;;;;;6.9;5.95;;;;;;;8.03;65.28906;93899.92;;;;
2019/05/19 00:25:56;;;;;;;6.9;5.95;;;;;;;8.03;65.28906;93899.92;;;;
2019/05/19 00:26:57;;;;;;;6.9;5.95;;;;;;;8.03;65.28906;93899.92;;;;
2019/05/19 00:27:58;;;;;;;6.9;5.95;;;;;;;8.03;65.28906;93899.92;;;;
2019/05/19 00:28:59;;;;;;;6.9;5.95;;;;;;;8.03;65.28906;93899.92;;;;
2019/05/19 00:30:00;;;;;;;6.9;5.95;;;;;;;8.03;65.28906;93899.92;;;;
2019/05/19 00:31:02;;;;;;;6.950001;6.249999;;;;;;;7.87;65.60547;93885.24;;;;
2019/05/19 00:32:03;;;;;;;6.950001;6.249999;;;;;;;7.87;65.60547;93885.24;;;;
2019/05/19 00:33:04;;;;;;;6.950001;6.249999;;;;;;;7.87;65.60547;93885.24;;;;
2019/05/19 00:34:05;;;;;;;6.950001;6.249999;;;;;;;7.87;65.60547;93885.24;;;;
2019/05/19 00:35:06;;;;;;;6.950001;6.249999;;;;;;;7.87;65.60547;93885.24;;;;
2019/05/19 00:36:07;;;;;;;6.950001;6.249999;;;;;;;7.87;65.60547;93885.24;;;;
2019/05/19 00:37:08;;;;;;;6.950001;6.249999;;;;;;;7.87;65.60547;93885.24;;;;
2019/05/19 00:38:10;;;;;;;6.950001;6.249999;;;;;;;7.87;65.60547;93885.24;;;;
2019/05/19 00:39:11;;;;;;;6.950001;6.249999;;;;;;;7.87;65.60547;93885.24;;;;
2019/05/19 00:40:12;;;;;;;6.950001;6.249999;;;;;;;7.87;65.60547;93885.24;;;;
2019/05/19 00:41:13;;;;;;;7.55;5.949999;;;;;;;7.82;65.93066;93883.7;;;;
2019/05/19 00:42:14;;;;;;;7.55;5.949999;;;;;;;7.82;65.93066;93883.7;;;;
2019/05/19 00:43:15;;;;;;;7.55;5.949999;;;;;;;7.82;65.93066;93883.7;;;;
2019/05/19 00:44:16;;;;;;;7.55;5.949999;;;;;;;7.82;65.93066;93883.7;;;;
2019/05/19 00:45:17;;;;;;;7.55;5.949999;;;;;;;7.82;65.93066;93883.7;;;;
2019/05/19 00:46:19;;;;;;;7.55;5.949999;;;;;;;7.82;65.93066;93883.7;;;;
2019/05/19 00:47:20;;;;;;;7.55;5.949999;;;;;;;7.82;65.93066;93883.7;;;;
2019/05/19 00:48:22;;;;;;;7.55;5.949999;;;;;;;7.82;65.93066;93883.7;;;;
2019/05/19 00:49:23;;;;;;;7.55;5.949999;;;;;;;7.82;65.93066;93883.7;;;;
2019/05/19 00:50:24;;;;;;;7.55;5.949999;;;;;;;7.82;65.93066;93883.7;;;;
2019/05/19 00:51:25;;;;;;;7.55;5.949999;;;;;;;7.82;65.93066;93883.7;;;;
2019/05/19 00:52:26;;;;;;;7;6.199999;;;;;;;7.68;66.18555;93888.78;;;;
2019/05/19 00:53:27;;;;;;;7;6.199999;;;;;;;7.68;66.18555;93888.78;;;;
2019/05/19 00:54:28;;;;;;;7;6.199999;;;;;;;7.68;66.18555;93888.78;;;;
2019/05/19 00:55:29;;;;;;;7;6.199999;;;;;;;7.68;66.18555;93888.78;;;;
2019/05/19 00:56:30;;;;;;;7;6.199999;;;;;;;7.68;66.18555;93888.78;;;;
2019/05/19 00:57:31;;;;;;;7;6.199999;;;;;;;7.68;66.18555;93888.78;;;;
2019/05/19 00:58:33;;;;;;;7;6.199999;;;;;;;7.68;66.18555;93888.78;;;;
2019/05/19 00:59:34;;;;;;;7;6.199999;;;;;;;7.68;66.18555;93888.78;;;;
2019/05/19 01:00:35;;;;;;;7;6.199999;;;;;;;7.68;66.18555;93888.78;;;;
2019/05/19 01:01:36;;;;;;;7;6.199999;;;;;;;7.68;66.18555;93888.78;;;;
2019/05/19 01:02:37;;;;;;;6.1;5.5;;;;;;;7.66;66.5332;93895.9;;;;
2019/05/19 01:03:38;;;;;;;6.1;5.5;;;;;;;7.66;66.5332;93895.9;;;;
2019/05/19 01:04:40;;;;;;;6.1;5.5;;;;;;;7.66;66.5332;93895.9;;;;
2019/05/19 01:05:41;;;;;;;6.1;5.5;;;;;;;7.66;66.5332;93895.9;;;;
2019/05/19 01:06:42;;;;;;;6.1;5.5;;;;;;;7.66;66.5332;93895.9;;;;
2019/05/19 01:07:43;;;;;;;6.1;5.5;;;;;;;7.66;66.5332;93895.9;;;;
2019/05/19 01:08:44;;;;;;;6.1;5.5;;;;;;;7.66;66.5332;93895.9;;;;
2019/05/19 01:09:45;;;;;;;6.1;5.5;;;;;;;7.66;66.5332;93895.9;;;;
2019/05/19 01:10:46;;;;;;;6.1;5.5;;;;;;;7.66;66.5332;93895.9;;;;
2019/05/19 01:11:47;;;;;;;6.1;5.5;;;;;;;7.66;66.5332;93895.9;;;;
2019/05/19 01:12:49;;;;;;;6.200001;5.649999;;;;;;;7.6;66.71484;93891.11;;;;
2019/05/19 01:13:50;;;;;;;6.200001;5.649999;;;;;;;7.6;66.71484;93891.11;;;;
2019/05/19 01:14:51;;;;;;;6.200001;5.649999;;;;;;;7.6;66.71484;93891.11;;;;
2019/05/19 01:15:52;;;;;;;6.200001;5.649999;;;;;;;7.6;66.71484;93891.11;;;;
2019/05/19 01:16:53;;;;;;;6.200001;5.649999;;;;;;;7.6;66.71484;93891.11;;;;
2019/05/19 01:17:54;;;;;;;6.200001;5.649999;;;;;;;7.6;66.71484;93891.11;;;;
2019/05/19 01:18:56;;;;;;;6.200001;5.649999;;;;;;;7.6;66.71484;93891.11;;;;
2019/05/19 01:19:57;;;;;;;6.200001;5.649999;;;;;;;7.6;66.71484;93891.11;;;;
2019/05/19 01:20:58;;;;;;;6.200001;5.649999;;;;;;;7.6;66.71484;93891.11;;;;
2019/05/19 01:21:59;;;;;;;6.200001;5.649999;;;;;;;7.6;66.71484;93891.11;;;;
2019/05/19 01:23:00;;;;;;;6.200001;5.649999;;;;;;;7.6;66.71484;93891.11;;;;
2019/05/19 01:24:01;;;;;;;6.150001;5.55;;;;;;;7.54;66.87793;93892.92;;;;
2019/05/19 01:25:03;;;;;;;6.150001;5.55;;;;;;;7.54;66.87793;93892.92;;;;
2019/05/19 01:26:05;;;;;;;6.150001;5.55;;;;;;;7.54;66.87793;93892.92;;;;
2019/05/19 01:27:06;;;;;;;6.150001;5.55;;;;;;;7.54;66.87793;93892.92;;;;
2019/05/19 01:28:07;;;;;;;6.150001;5.55;;;;;;;7.54;66.87793;93892.92;;;;
2019/05/19 01:29:08;;;;;;;6.150001;5.55;;;;;;;7.54;66.87793;93892.92;;;;
2019/05/19 01:30:09;;;;;;;6.150001;5.55;;;;;;;7.54;66.87793;93892.92;;;;
2019/05/19 01:31:10;;;;;;;6.150001;5.55;;;;;;;7.54;66.87793;93892.92;;;;
2019/05/19 01:32:11;;;;;;;6.150001;5.55;;;;;;;7.54;66.87793;93892.92;;;;
2019/05/19 01:33:13;;;;;;;6.150001;5.55;;;;;;;7.54;66.87793;93892.92;;;;
2019/05/19 01:34:14;;;;;;;6.150001;5.55;;;;;;;7.54;66.87793;93892.92;;;;
2019/05/19 01:35:15;;;;;;;6.150001;5.55;;;;;;;7.54;66.87793;93892.92;;;;
2019/05/19 01:36:16;;;;;;;6.150001;5.55;;;;;;;7.54;66.87793;93892.92;;;;
2019/05/19 01:37:17;;;;;;;6.150001;5.55;;;;;;;7.54;66.87793;93892.92;;;;
2019/05/19 01:38:18;;;;;;;6.150001;5.55;;;;;;;7.54;66.87793;93892.92;;;;
2019/05/19 01:39:19;;;;;;;6.150001;5.55;;;;;;;7.54;66.87793;93892.92;;;;
2019/05/19 01:40:21;;;;;;;6.150001;5.55;;;;;;;7.54;66.87793;93892.92;;;;
2019/05/19 01:41:22;;;;;;;6.150001;5.55;;;;;;;7.54;66.87793;93892.92;;;;
2019/05/19 01:42:23;;;;;;;6.150001;5.55;;;;;;;7.54;66.87793;93892.92;;;;
2019/05/19 01:43:24;;;;;;;6.150001;5.55;;;;;;;7.54;66.87793;93892.92;;;;
2019/05/19 01:44:25;;;;;;;7.349999;6.65;;;;;;;7.39;67.50391;93902.17;;;;
2019/05/19 01:45:27;;;;;;;7.349999;6.65;;;;;;;7.39;67.50391;93902.17;;;;
2019/05/19 01:46:28;;;;;;;7.349999;6.65;;;;;;;7.39;67.50391;93902.17;;;;
2019/05/19 01:47:29;;;;;;;7.349999;6.65;;;;;;;7.39;67.50391;93902.17;;;;
2019/05/19 01:48:30;;;;;;;7.349999;6.65;;;;;;;7.39;67.50391;93902.17;;;;
2019/05/19 01:49:31;;;;;;;7.349999;6.65;;;;;;;7.39;67.50391;93902.17;;;;
2019/05/19 01:50:32;;;;;;;7.349999;6.65;;;;;;;7.39;67.50391;93902.17;;;;
2019/05/19 01:51:33;;;;;;;7.349999;6.65;;;;;;;7.39;67.50391;93902.17;;;;
2019/05/19 01:52:34;;;;;;;7.349999;6.65;;;;;;;7.39;67.50391;93902.17;;;;
2019/05/19 01:53:35;;;;;;;7.349999;6.65;;;;;;;7.39;67.50391;93902.17;;;;
2019/05/19 01:54:37;;;;;;;7.349999;6.65;;;;;;;7.39;67.50391;93902.17;;;;
2019/05/19 01:55:38;;;;;;;8.499999;7.15;;;;;;;7.23;67.84082;93911.47;;;;
2019/05/19 01:56:39;;;;;;;8.499999;7.15;;;;;;;7.23;67.84082;93911.47;;;;
2019/05/19 01:57:40;;;;;;;8.499999;7.15;;;;;;;7.23;67.84082;93911.47;;;;
2019/05/19 01:58:41;;;;;;;8.499999;7.15;;;;;;;7.23;67.84082;93911.47;;;;
2019/05/19 01:59:42;;;;;;;8.499999;7.15;;;;;;;7.23;67.84082;93911.47;;;;
2019/05/19 02:00:43;;;;;;;8.499999;7.15;;;;;;;7.23;67.84082;93911.47;;;;
2019/05/19 02:01:45;;;;;;;8.499999;7.15;;;;;;;7.23;67.84082;93911.47;;;;
2019/05/19 02:02:46;;;;;;;8.499999;7.15;;;;;;;7.23;67.84082;93911.47;;;;
2019/05/19 02:03:47;;;;;;;8.499999;7.15;;;;;;;7.23;67.84082;93911.47;;;;
2019/05/19 02:04:48;;;;;;;8.499999;7.15;;;;;;;7.23;67.84082;93911.47;;;;
2019/05/19 02:05:49;;;;;;;8.15;7;;;;;;;7.17;68.14941;93916.09;;;;
2019/05/19 02:06:51;;;;;;;8.15;7;;;;;;;7.17;68.14941;93916.09;;;;
2019/05/19 02:07:52;;;;;;;8.15;7;;;;;;;7.17;68.14941;93916.09;;;;
2019/05/19 02:08:53;;;;;;;8.15;7;;;;;;;7.17;68.14941;93916.09;;;;
2019/05/19 02:09:55;;;;;;;8.15;7;;;;;;;7.17;68.14941;93916.09;;;;
2019/05/19 02:10:56;;;;;;;8.15;7;;;;;;;7.17;68.14941;93916.09;;;;
2019/05/19 02:11:57;;;;;;;8.15;7;;;;;;;7.17;68.14941;93916.09;;;;
2019/05/19 02:12:58;;;;;;;8.15;7;;;;;;;7.17;68.14941;93916.09;;;;
2019/05/19 02:13:59;;;;;;;8.15;7;;;;;;;7.17;68.14941;93916.09;;;;
2019/05/19 02:15:00;;;;;;;8.15;7;;;;;;;7.17;68.14941;93916.09;;;;
2019/05/19 02:16:02;;;;;;;8.15;7;;;;;;;7.17;68.14941;93916.09;;;;
2019/05/19 02:17:04;;;;;;;8.450001;7.349999;;;;;;;7.17;68.5127;93915.58;;;;
2019/05/19 02:18:05;;;;;;;8.450001;7.349999;;;;;;;7.17;68.5127;93915.58;;;;
2019/05/19 02:19:06;;;;;;;8.450001;7.349999;;;;;;;7.17;68.5127;93915.58;;;;
2019/05/19 02:20:07;;;;;;;8.450001;7.349999;;;;;;;7.17;68.5127;93915.58;;;;
2019/05/19 02:21:08;;;;;;;8.450001;7.349999;;;;;;;7.17;68.5127;93915.58;;;;
2019/05/19 02:22:09;;;;;;;8.450001;7.349999;;;;;;;7.17;68.5127;93915.58;;;;
2019/05/19 02:23:10;;;;;;;8.450001;7.349999;;;;;;;7.17;68.5127;93915.58;;;;
2019/05/19 02:24:12;;;;;;;8.450001;7.349999;;;;;;;7.17;68.5127;93915.58;;;;
2019/05/19 02:25:13;;;;;;;8.450001;7.349999;;;;;;;7.17;68.5127;93915.58;;;;
2019/05/19 02:26:14;;;;;;;8.450001;7.349999;;;;;;;7.17;68.5127;93915.58;;;;
2019/05/19 02:27:15;;;;;;;8.799999;7.95;;;;;;;7.41;68.74121;93923.25;;;;
2019/05/19 02:28:16;;;;;;;8.799999;7.95;;;;;;;7.41;68.74121;93923.25;;;;
2019/05/19 02:29:18;;;;;;;8.799999;7.95;;;;;;;7.41;68.74121;93923.25;;;;
2019/05/19 02:30:19;;;;;;;8.799999;7.95;;;;;;;7.41;68.74121;93923.25;;;;
2019/05/19 02:31:20;;;;;;;8.799999;7.95;;;;;;;7.41;68.74121;93923.25;;;;
2019/05/19 02:32:21;;;;;;;8.799999;7.95;;;;;;;7.41;68.74121;93923.25;;;;
2019/05/19 02:33:22;;;;;;;8.799999;7.95;;;;;;;7.41;68.74121;93923.25;;;;
2019/05/19 02:34:23;;;;;;;8.799999;7.95;;;;;;;7.41;68.74121;93923.25;;;;
2019/05/19 02:35:24;;;;;;;8.799999;7.95;;;;;;;7.41;68.74121;93923.25;;;;
2019/05/19 02:36:26;;;;;;;8.799999;7.95;;;;;;;7.41;68.74121;93923.25;;;;
2019/05/19 02:37:27;;;;;;;8.799999;7.95;;;;;;;7.41;68.74121;93923.25;;;;
2019/05/19 02:38:28;;;;;;;8.799999;7.95;;;;;;;7.41;68.74121;93923.25;;;;
2019/05/19 02:39:29;;;;;;;8.799999;7.95;;;;;;;7.41;68.74121;93923.25;;;;
2019/05/19 02:40:30;;;;;;;8.799999;7.95;;;;;;;7.41;68.74121;93923.25;;;;
2019/05/19 02:41:32;;;;;;;8.799999;7.95;;;;;;;7.41;68.74121;93923.25;;;;
2019/05/19 02:42:33;;;;;;;8.799999;7.95;;;;;;;7.41;68.74121;93923.25;;;;
2019/05/19 02:43:35;;;;;;;8.799999;7.95;;;;;;;7.41;68.74121;93923.25;;;;
2019/05/19 02:44:36;;;;;;;8.799999;7.95;;;;;;;7.41;68.74121;93923.25;;;;
2019/05/19 02:45:37;;;;;;;8.799999;7.95;;;;;;;7.41;68.74121;93923.25;;;;
2019/05/19 02:46:38;;;;;;;8.799999;7.95;;;;;;;7.41;68.74121;93923.25;;;;
2019/05/19 02:47:39;;;;;;;8.799999;7.95;;;;;;;7.41;68.74121;93923.25;;;;
2019/05/19 02:48:41;;;;;;;8.9;8;;;;;;;8.02;69.33789;93936.05;;;;
2019/05/19 02:49:42;;;;;;;8.9;8;;;;;;;8.02;69.33789;93936.05;;;;
2019/05/19 02:50:43;;;;;;;8.9;8;;;;;;;8.02;69.33789;93936.05;;;;
2019/05/19 02:51:44;;;;;;;8.9;8;;;;;;;8.02;69.33789;93936.05;;;;
2019/05/19 02:52:46;;;;;;;8.9;8;;;;;;;8.02;69.33789;93936.05;;;;
2019/05/19 02:53:47;;;;;;;8.9;8;;;;;;;8.02;69.33789;93936.05;;;;
2019/05/19 02:54:48;;;;;;;8.9;8;;;;;;;8.02;69.33789;93936.05;;;;
2019/05/19 02:55:49;;;;;;;8.9;8;;;;;;;8.02;69.33789;93936.05;;;;
2019/05/19 02:56:50;;;;;;;8.9;8;;;;;;;8.02;69.33789;93936.05;;;;
2019/05/19 02:57:51;;;;;;;8.9;8;;;;;;;8.02;69.33789;93936.05;;;;
2019/05/19 02:58:52;;;;;;;10.6;8.75;;;;;;;8.28;69.94434;93941.46;;;;
2019/05/19 02:59:53;;;;;;;10.6;8.75;;;;;;;8.28;69.94434;93941.46;;;;
2019/05/19 03:00:54;;;;;;;10.6;8.75;;;;;;;8.28;69.94434;93941.46;;;;
2019/05/19 03:02:00;;;;;;;10.6;8.75;;;;;;;8.28;69.94434;93941.46;;;;
2019/05/19 03:03:01;;;;;;;10.6;8.75;;;;;;;8.28;69.94434;93941.46;;;;
2019/05/19 03:04:03;;;;;;;10.6;8.75;;;;;;;8.28;69.94434;93941.46;;;;
2019/05/19 03:05:04;;;;;;;10.6;8.75;;;;;;;8.28;69.94434;93941.46;;;;
2019/05/19 03:06:05;;;;;;;10.6;8.75;;;;;;;8.28;69.94434;93941.46;;;;
2019/05/19 03:07:06;;;;;;;10.6;8.75;;;;;;;8.28;69.94434;93941.46;;;;
2019/05/19 03:08:07;;;;;;;10.6;8.75;;;;;;;8.28;69.94434;93941.46;;;;
2019/05/19 03:09:08;;;;;;;10.35;9.35;;;;;;;8.62;70.33008;93930.88;;;;
2019/05/19 03:10:09;;;;;;;10.35;9.35;;;;;;;8.62;70.33008;93930.88;;;;
2019/05/19 03:11:10;;;;;;;10.35;9.35;;;;;;;8.62;70.33008;93930.88;;;;
2019/05/19 03:12:12;;;;;;;10.35;9.35;;;;;;;8.62;70.33008;93930.88;;;;
2019/05/19 03:13:13;;;;;;;10.35;9.35;;;;;;;8.62;70.33008;93930.88;;;;
2019/05/19 03:14:14;;;;;;;10.35;9.35;;;;;;;8.62;70.33008;93930.88;;;;
2019/05/19 03:15:15;;;;;;;10.35;9.35;;;;;;;8.62;70.33008;93930.88;;;;
2019/05/19 03:16:16;;;;;;;10.35;9.35;;;;;;;8.62;70.33008;93930.88;;;;
2019/05/19 03:17:17;;;;;;;10.35;9.35;;;;;;;8.62;70.33008;93930.88;;;;
2019/05/19 03:18:18;;;;;;;10.35;9.35;;;;;;;8.62;70.33008;93930.88;;;;
2019/05/19 03:19:19;;;;;;;10.35;9.35;;;;;;;8.62;70.33008;93930.88;;;;
2019/05/19 03:20:20;;;;;;;10.35;9.35;;;;;;;8.62;70.33008;93930.88;;;;
2019/05/19 03:21:21;;;;;;;10.35;9.35;;;;;;;8.62;70.33008;93930.88;;;;
2019/05/19 03:22:22;;;;;;;10.35;9.35;;;;;;;8.62;70.33008;93930.88;;;;
2019/05/19 03:23:23;;;;;;;10.35;9.35;;;;;;;8.62;70.33008;93930.88;;;;
2019/05/19 03:24:25;;;;;;;10.35;9.35;;;;;;;8.62;70.33008;93930.88;;;;
2019/05/19 03:25:26;;;;;;;10.35;9.35;;;;;;;8.62;70.33008;93930.88;;;;
2019/05/19 03:26:27;;;;;;;10.35;9.35;;;;;;;8.62;70.33008;93930.88;;;;
2019/05/19 03:27:28;;;;;;;10.35;9.35;;;;;;;8.62;70.33008;93930.88;;;;
2019/05/19 03:28:29;;;;;;;10.35;9.35;;;;;;;8.62;70.33008;93930.88;;;;
2019/05/19 03:29:34;;;;;;;10.35;9.35;;;;;;;8.62;70.33008;93930.88;;;;
2019/05/19 03:34:36;;;;;;;11.55;10.35;;;;;;;9.03;70.70703;93943.95;;;;
2019/05/19 03:35:37;;;;;;;11.55;10.35;;;;;;;9.03;70.70703;93943.95;;;;
2019/05/19 03:36:38;;;;;;;11.55;10.35;;;;;;;9.03;70.70703;93943.95;;;;
2019/05/19 03:37:40;;;;;;;11.55;10.35;;;;;;;9.03;70.70703;93943.95;;;;
2019/05/19 03:38:41;;;;;;;11.55;10.35;;;;;;;9.03;70.70703;93943.95;;;;
2019/05/19 03:39:42;;;;;;;11.55;10.35;;;;;;;9.03;70.70703;93943.95;;;;
2019/05/19 03:40:43;;;;;;;11.55;10.35;;;;;;;9.03;70.70703;93943.95;;;;
2019/05/19 03:41:44;;;;;;;12.85;11.05;;;;;;;9.19;71.95898;93961.03;;;;
2019/05/19 03:42:45;;;;;;;12.85;11.05;;;;;;;9.19;71.95898;93961.03;;;;
2019/05/19 03:43:48;;;;;;;12.85;11.05;;;;;;;9.19;71.95898;93961.03;;;;
2019/05/19 03:44:49;;;;;;;12.85;11.05;;;;;;;9.19;71.95898;93961.03;;;;
2019/05/19 03:45:50;;;;;;;12.85;11.05;;;;;;;9.19;71.95898;93961.03;;;;
2019/05/19 03:46:51;;;;;;;12.85;11.05;;;;;;;9.19;71.95898;93961.03;;;;
2019/05/19 03:47:52;;;;;;;12.85;11.05;;;;;;;9.19;71.95898;93961.03;;;;
2019/05/19 03:48:53;;;;;;;12.85;11.05;;;;;;;9.19;71.95898;93961.03;;;;
2019/05/19 03:49:54;;;;;;;12.85;11.05;;;;;;;9.19;71.95898;93961.03;;;;
2019/05/19 03:50:55;;;;;;;12.85;11.05;;;;;;;9.19;71.95898;93961.03;;;;
2019/05/19 03:51:56;;;;;;;12.85;11.05;;;;;;;9.19;71.95898;93961.03;;;;
2019/05/19 03:52:57;;;;;;;12.85;11.05;;;;;;;9.19;71.95898;93961.03;;;;
2019/05/19 03:53:58;;;;;;;12.85;11.05;;;;;;;9.19;71.95898;93961.03;;;;
2019/05/19 03:55:00;;;;;;;12.85;11.05;;;;;;;9.19;71.95898;93961.03;;;;
2019/05/19 03:56:01;;;;;;;12.85;11.05;;;;;;;9.19;71.95898;93961.03;;;;
2019/05/19 03:57:02;;;;;;;12.85;11.05;;;;;;;9.19;71.95898;93961.03;;;;
2019/05/19 03:58:03;;;;;;;12.85;11.05;;;;;;;9.19;71.95898;93961.03;;;;
2019/05/19 03:59:04;;;;;;;12.85;11.05;;;;;;;9.19;71.95898;93961.03;;;;
2019/05/19 04:00:05;;;;;;;12.85;11.05;;;;;;;9.19;71.95898;93961.03;;;;
2019/05/19 04:01:06;;;;;;;12.85;11.05;;;;;;;9.19;71.95898;93961.03;;;;
2019/05/19 04:02:07;;;;;;;12.85;11.05;;;;;;;9.19;71.95898;93961.03;;;;
2019/05/19 04:03:09;;;;;;;12;10.8;;;;;;;9.24;71.74414;93956.5;;;;
2019/05/19 04:04:10;;;;;;;12;10.8;;;;;;;9.24;71.74414;93956.5;;;;
2019/05/19 04:05:11;;;;;;;12;10.8;;;;;;;9.24;71.74414;93956.5;;;;
2019/05/19 04:06:12;;;;;;;12;10.8;;;;;;;9.24;71.74414;93956.5;;;;
2019/05/19 04:07:13;;;;;;;12;10.8;;;;;;;9.24;71.74414;93956.5;;;;
2019/05/19 04:08:14;;;;;;;12;10.8;;;;;;;9.24;71.74414;93956.5;;;;
2019/05/19 04:09:15;;;;;;;12;10.8;;;;;;;9.24;71.74414;93956.5;;;;
2019/05/19 04:10:16;;;;;;;12;10.8;;;;;;;9.24;71.74414;93956.5;;;;
2019/05/19 04:11:18;;;;;;;12;10.8;;;;;;;9.24;71.74414;93956.5;;;;
2019/05/19 04:12:19;;;;;;;12;10.8;;;;;;;9.24;71.74414;93956.5;;;;
2019/05/19 04:13:20;;;;;;;12.85;11.55;;;;;;;9.24;72.40527;93967.27;;;;
2019/05/19 04:14:21;;;;;;;12.85;11.55;;;;;;;9.24;72.40527;93967.27;;;;
2019/05/19 04:15:22;;;;;;;12.85;11.55;;;;;;;9.24;72.40527;93967.27;;;;
2019/05/19 04:16:23;;;;;;;12.85;11.55;;;;;;;9.24;72.40527;93967.27;;;;
2019/05/19 04:17:24;;;;;;;12.85;11.55;;;;;;;9.24;72.40527;93967.27;;;;
2019/05/19 04:18:25;;;;;;;12.85;11.55;;;;;;;9.24;72.40527;93967.27;;;;
2019/05/19 04:19:26;;;;;;;12.85;11.55;;;;;;;9.24;72.40527;93967.27;;;;
2019/05/19 04:20:27;;;;;;;12.85;11.55;;;;;;;9.24;72.40527;93967.27;;;;
2019/05/19 04:21:28;;;;;;;12.85;11.55;;;;;;;9.24;72.40527;93967.27;;;;
2019/05/19 04:22:29;;;;;;;12.85;11.55;;;;;;;9.24;72.40527;93967.27;;;;
2019/05/19 04:23:30;;;;;;;12.85;11.55;;;;;;;9.24;72.40527;93967.27;;;;
2019/05/19 04:24:32;;;;;;;12.05;10.95;;;;;;;9.23;72.22168;93959.45;;;;
2019/05/19 04:25:33;;;;;;;12.05;10.95;;;;;;;9.23;72.22168;93959.45;;;;
2019/05/19 04:26:34;;;;;;;12.05;10.95;;;;;;;9.23;72.22168;93959.45;;;;
2019/05/19 04:27:35;;;;;;;12.05;10.95;;;;;;;9.23;72.22168;93959.45;;;;
2019/05/19 04:28:37;;;;;;;12.05;10.95;;;;;;;9.23;72.22168;93959.45;;;;
2019/05/19 04:29:38;;;;;;;12.05;10.95;;;;;;;9.23;72.22168;93959.45;;;;
2019/05/19 04:30:39;;;;;;;12.05;10.95;;;;;;;9.23;72.22168;93959.45;;;;
2019/05/19 04:31:40;;;;;;;12.05;10.95;;;;;;;9.23;72.22168;93959.45;;;;
2019/05/19 04:32:41;;;;;;;12.05;10.95;;;;;;;9.23;72.22168;93959.45;;;;
2019/05/19 04:33:42;;;;;;;12.05;10.95;;;;;;;9.23;72.22168;93959.45;;;;
2019/05/19 04:34:43;;;;;;;12.05;10.95;;;;;;;9.23;72.22168;93959.45;;;;
2019/05/19 04:35:44;;;;;;;12.05;10.95;;;;;;;9.23;72.22168;93959.45;;;;
2019/05/19 04:36:45;;;;;;;12.05;10.95;;;;;;;9.23;72.22168;93959.45;;;;
2019/05/19 04:37:46;;;;;;;12.05;10.95;;;;;;;9.23;72.22168;93959.45;;;;
2019/05/19 04:38:47;;;;;;;12.05;10.95;;;;;;;9.23;72.22168;93959.45;;;;
2019/05/19 04:39:49;;;;;;;12.05;10.95;;;;;;;9.23;72.22168;93959.45;;;;
2019/05/19 04:40:50;;;;;;;12.05;10.95;;;;;;;9.23;72.22168;93959.45;;;;
2019/05/19 04:41:51;;;;;;;12.05;10.95;;;;;;;9.23;72.22168;93959.45;;;;
2019/05/19 04:42:52;;;;;;;12.05;10.95;;;;;;;9.23;72.22168;93959.45;;;;
2019/05/19 04:43:53;;;;;;;12.05;10.95;;;;;;;9.23;72.22168;93959.45;;;;
2019/05/19 04:44:54;;;;;;;12.05;10.95;;;;;;;9.23;72.22168;93959.45;;;;
2019/05/19 04:45:55;;;;;;;11.55;10.45;;;;;;;9.43;72.76953;93972.91;;;;
2019/05/19 04:46:56;;;;;;;11.55;10.45;;;;;;;9.43;72.76953;93972.91;;;;
2019/05/19 04:47:57;;;;;;;11.55;10.45;;;;;;;9.43;72.76953;93972.91;;;;
2019/05/19 04:48:58;;;;;;;11.55;10.45;;;;;;;9.43;72.76953;93972.91;;;;
2019/05/19 04:49:59;;;;;;;11.55;10.45;;;;;;;9.43;72.76953;93972.91;;;;
2019/05/19 04:51:00;;;;;;;11.55;10.45;;;;;;;9.43;72.76953;93972.91;;;;
2019/05/19 04:52:01;;;;;;;11.55;10.45;;;;;;;9.43;72.76953;93972.91;;;;
2019/05/19 04:53:02;;;;;;;11.55;10.45;;;;;;;9.43;72.76953;93972.91;;;;
2019/05/19 04:54:04;;;;;;;11.55;10.45;;;;;;;9.43;72.76953;93972.91;;;;
2019/05/19 04:55:05;;;;;;;11.55;10.45;;;;;;;9.43;72.76953;93972.91;;;;
2019/05/19 04:56:06;;;;;;;11.15;10.05;;;;;;;9.82;72.72754;93966.61;;;;
2019/05/19 04:57:07;;;;;;;11.15;10.05;;;;;;;9.82;72.72754;93966.61;;;;
2019/05/19 04:58:08;;;;;;;11.15;10.05;;;;;;;9.82;72.72754;93966.61;;;;
2019/05/19 04:59:09;;;;;;;11.15;10.05;;;;;;;9.82;72.72754;93966.61;;;;
2019/05/19 05:00:10;;;;;;;11.15;10.05;;;;;;;9.82;72.72754;93966.61;;;;
2019/05/19 05:01:11;;;;;;;11.15;10.05;;;;;;;9.82;72.72754;93966.61;;;;
2019/05/19 05:02:12;;;;;;;11.15;10.05;;;;;;;9.82;72.72754;93966.61;;;;
2019/05/19 05:03:13;;;;;;;11.15;10.05;;;;;;;9.82;72.72754;93966.61;;;;
2019/05/19 05:04:14;;;;;;;11.15;10.05;;;;;;;9.82;72.72754;93966.61;;;;
2019/05/19 05:05:15;;;;;;;11.15;10.05;;;;;;;9.82;72.72754;93966.61;;;;
2019/05/19 05:06:18;;;;;;;11.35;10.25;;;;;;;10.3;72.22852;93968.17;;;;
2019/05/19 05:07:19;;;;;;;11.35;10.25;;;;;;;10.3;72.22852;93968.17;;;;
2019/05/19 05:08:20;;;;;;;11.35;10.25;;;;;;;10.3;72.22852;93968.17;;;;
2019/05/19 05:09:21;;;;;;;11.35;10.25;;;;;;;10.3;72.22852;93968.17;;;;
2019/05/19 05:10:22;;;;;;;11.35;10.25;;;;;;;10.3;72.22852;93968.17;;;;
2019/05/19 05:11:23;;;;;;;11.35;10.25;;;;;;;10.3;72.22852;93968.17;;;;
2019/05/19 05:12:24;;;;;;;11.35;10.25;;;;;;;10.3;72.22852;93968.17;;;;
2019/05/19 05:13:25;;;;;;;11.35;10.25;;;;;;;10.3;72.22852;93968.17;;;;
2019/05/19 05:14:26;;;;;;;11.35;10.25;;;;;;;10.3;72.22852;93968.17;;;;
2019/05/19 05:15:27;;;;;;;11.35;10.25;;;;;;;10.3;72.22852;93968.17;;;;
2019/05/19 05:16:28;;;;;;;11.35;10.25;;;;;;;10.3;72.22852;93968.17;;;;
2019/05/19 05:17:29;;;;;;;11.8;10.7;;;;;;;10.97;71.66504;93975.94;;;;
2019/05/19 05:18:31;;;;;;;11.8;10.7;;;;;;;10.97;71.66504;93975.94;;;;
2019/05/19 05:19:32;;;;;;;11.8;10.7;;;;;;;10.97;71.66504;93975.94;;;;
2019/05/19 05:20:33;;;;;;;11.8;10.7;;;;;;;10.97;71.66504;93975.94;;;;
2019/05/19 05:21:34;;;;;;;11.8;10.7;;;;;;;10.97;71.66504;93975.94;;;;
2019/05/19 05:22:35;;;;;;;11.8;10.7;;;;;;;10.97;71.66504;93975.94;;;;
2019/05/19 05:23:36;;;;;;;11.8;10.7;;;;;;;10.97;71.66504;93975.94;;;;
2019/05/19 05:24:37;;;;;;;11.8;10.7;;;;;;;10.97;71.66504;93975.94;;;;
2019/05/19 05:25:38;;;;;;;11.8;10.7;;;;;;;10.97;71.66504;93975.94;;;;
2019/05/19 05:26:39;;;;;;;11.8;10.7;;;;;;;10.97;71.66504;93975.94;;;;
2019/05/19 05:27:40;;;;;;;12.5;11.3;;;;;;;11.53;71.62793;93971.86;;;;
2019/05/19 05:28:41;;;;;;;12.5;11.3;;;;;;;11.53;71.62793;93971.86;;;;
2019/05/19 05:29:42;;;;;;;12.5;11.3;;;;;;;11.53;71.62793;93971.86;;;;
2019/05/19 05:30:43;;;;;;;12.5;11.3;;;;;;;11.53;71.62793;93971.86;;;;
2019/05/19 05:31:45;;;;;;;12.5;11.3;;;;;;;11.53;71.62793;93971.86;;;;
2019/05/19 05:32:46;;;;;;;12.5;11.3;;;;;;;11.53;71.62793;93971.86;;;;
2019/05/19 05:33:47;;;;;;;12.5;11.3;;;;;;;11.53;71.62793;93971.86;;;;
2019/05/19 05:34:48;;;;;;;12.5;11.3;;;;;;;11.53;71.62793;93971.86;;;;
2019/05/19 05:35:49;;;;;;;12.5;11.3;;;;;;;11.53;71.62793;93971.86;;;;
2019/05/19 05:36:50;;;;;;;12.5;11.3;;;;;;;11.53;71.62793;93971.86;;;;
2019/05/19 05:37:51;;;;;;;12.5;11.3;;;;;;;11.53;71.62793;93971.86;;;;
2019/05/19 05:38:52;;;;;;;12.5;11.35;;;;;;;11.89;71.83691;93979.21;;;;
2019/05/19 05:39:53;;;;;;;12.5;11.35;;;;;;;11.89;71.83691;93979.21;;;;
2019/05/19 05:40:54;;;;;;;12.5;11.35;;;;;;;11.89;71.83691;93979.21;;;;
2019/05/19 05:41:55;;;;;;;12.5;11.35;;;;;;;11.89;71.83691;93979.21;;;;
2019/05/19 05:42:57;;;;;;;12.5;11.35;;;;;;;11.89;71.83691;93979.21;;;;
2019/05/19 05:43:58;;;;;;;12.5;11.35;;;;;;;11.89;71.83691;93979.21;;;;
2019/05/19 05:44:59;;;;;;;12.5;11.35;;;;;;;11.89;71.83691;93979.21;;;;
2019/05/19 05:46:00;;;;;;;12.5;11.35;;;;;;;11.89;71.83691;93979.21;;;;